Terminal Aerodrome Forecast
Issued by NWS Wilmington, OH

Current Version | Previous Version | Graphics & Text | Print | Product List | Glossary On
Versions: 1 2 3 4 5 6 7 8 9 10 11 12 13 14 15 16 17 18 19 20 21 22 23 24 25 26 27 28 29 30 31 32 33 34 35 36 37 38 39 40 41
000
FTUS41 KILN 271348 AAC
TAFCVG
TAF AMD
KCVG 271348Z 2714/2818 06010KT 1SM BR OVC002
      TEMPO 2714/2715 1/2SM FG VV002
     FM271500 07010KT 4SM BR OVC008
      TEMPO 2715/2716 2SM BR
     FM271800 09007KT P6SM OVC022
     FM272000 09006KT P6SM BKN035 OVC100
     FM280400 10007KT 5SM -SHRA BR BKN040
     FM280700 VRB04KT 3SM BR VCSH BKN008=

USA.gov is the U.S. government's official web portal to all federal, state and local government web resources and services.